KFOE

Topeka Regional Airport

Topeka, Kansas, USA
METAR KFOE 231053Z AUTO 31016KT 10SM OVC012 M02/M04 A3006 RMK AO2 SLP191 T10221044
Observed Flight Rules
Jan-23 @ 10:53 UTC (an hour ago) Marginal Visual Flight Rules
Wind Visibility Clouds
310° at 16 knots 10 miles
  • Overcast at 1,200' AGL
Temperatures Readings
Current -2°C / 28°F
Dewpoint -4°C / 25°F
Humidity 86%
Altimeter 30.06" Hg
Pressure 1019.1 hPa
Elevation 320
METAR KFOE 231053Z AUTO 31016KT 10SM OVC012 M02/M04 A3006 RMK AO2 SLP191 T10221044
Observed Flight Rules
Jan-23 @ 10:53 UTC
(an hour ago)
MVFR
Wind Visibility
310° at 16 knots 10 miles
Clouds
  • Overcast at 1,200' AGL
Temperature Dewpoint
-2°C / 28°F -4°C / 25°F
Humidity Altimeter Pressure
86% 30.06" Hg 1019.1 hPa